Startpagina
METAR-TAF:

METAR-TAF

Vliegvelden :

Emmen, Zwitserland

breedte: 47-05-32N, lengte: 8-18-16E, hoogte: 426 m

Actueel weer

Dit bericht is 34 minuten geleden gemaakt, om 11:20 UTC
Wind 1 kt uit variabele richting
Temperatuur 22°C
Vochtigheid 53%
Druk 1022 hPa
Zicht 10 km of meer
Verspreide wolken op 4200 ft

METAR: LSME 041120Z AUTO VRB01KT 9999NDV SCT042 22/12 Q1022 RMK

Tijdstip: 13:54 (11:54 UTC)


TAF: ontbreekt

Waarnemingen en weersverwachtingen van meer dan 4000 vliegvelden (METAR en TAF).

De beschikbare stations zijn de gele en rode punten op de kaart.

Ga met uw muis naar het station om de naam te zien.

Klik dan om waarnemingen en weersverwachtingen te zien.

kaart wijzigen: klik op de groene knoppen met een zwart kruis om in te zoomen, op de groene knop met een streepje om uit te zoomen of op de groene pijlen voor aangrenzende kaarten.


METAR-TAF: